sensor_id;sensor_type;location;lat;lon;timestamp;P1;durP1;ratioP1;P2;durP2;ratioP2
64459;SDS011;50828;53.756;21.140;2023-07-28T00:04:43;4.80;;;2.70;;
64459;SDS011;50828;53.756;21.140;2023-07-28T00:09:52;4.00;;;2.40;;
64459;SDS011;50828;53.756;21.140;2023-07-28T00:15:00;4.30;;;2.70;;
64459;SDS011;50828;53.756;21.140;2023-07-28T00:20:10;3.60;;;2.30;;
64459;SDS011;50828;53.756;21.140;2023-07-28T00:25:19;4.50;;;2.50;;
64459;SDS011;50828;53.756;21.140;2023-07-28T00:30:27;6.90;;;2.50;;
64459;SDS011;50828;53.756;21.140;2023-07-28T00:35:36;4.40;;;2.30;;
64459;SDS011;50828;53.756;21.140;2023-07-28T00:40:44;4.10;;;2.30;;
64459;SDS011;50828;53.756;21.140;2023-07-28T00:45:53;5.50;;;3.30;;
64459;SDS011;50828;53.756;21.140;2023-07-28T00:51:01;6.30;;;3.50;;
64459;SDS011;50828;53.756;21.140;2023-07-28T00:56:10;3.50;;;1.90;;
64459;SDS011;50828;53.756;21.140;2023-07-28T01:01:19;3.80;;;2.50;;
64459;SDS011;50828;53.756;21.140;2023-07-28T01:06:29;3.40;;;2.20;;
64459;SDS011;50828;53.756;21.140;2023-07-28T01:11:56;3.50;;;2.00;;
64459;SDS011;50828;53.756;21.140;2023-07-28T01:17:06;6.00;;;3.80;;
64459;SDS011;50828;53.756;21.140;2023-07-28T01:22:25;5.30;;;3.00;;
64459;SDS011;50828;53.756;21.140;2023-07-28T01:27:52;4.70;;;3.00;;
64459;SDS011;50828;53.756;21.140;2023-07-28T01:33:05;3.50;;;2.30;;
64459;SDS011;50828;53.756;21.140;2023-07-28T01:38:14;4.80;;;2.30;;
64459;SDS011;50828;53.756;21.140;2023-07-28T01:43:22;9.20;;;5.80;;
64459;SDS011;50828;53.756;21.140;2023-07-28T01:48:31;6.80;;;3.90;;
64459;SDS011;50828;53.756;21.140;2023-07-28T01:53:39;5.20;;;3.30;;
64459;SDS011;50828;53.756;21.140;2023-07-28T01:58:48;5.40;;;2.50;;
64459;SDS011;50828;53.756;21.140;2023-07-28T02:03:56;4.20;;;2.50;;
64459;SDS011;50828;53.756;21.140;2023-07-28T02:09:04;8.50;;;3.70;;
64459;SDS011;50828;53.756;21.140;2023-07-28T02:14:13;7.00;;;3.10;;
64459;SDS011;50828;53.756;21.140;2023-07-28T02:19:20;5.80;;;2.90;;
64459;SDS011;50828;53.756;21.140;2023-07-28T02:24:28;7.10;;;2.70;;
64459;SDS011;50828;53.756;21.140;2023-07-28T02:29:37;7.90;;;3.00;;
64459;SDS011;50828;53.756;21.140;2023-07-28T02:34:46;7.10;;;3.70;;
64459;SDS011;50828;53.756;21.140;2023-07-28T02:39:55;7.40;;;4.00;;
64459;SDS011;50828;53.756;21.140;2023-07-28T02:45:03;6.10;;;3.10;;
64459;SDS011;50828;53.756;21.140;2023-07-28T02:50:11;5.80;;;3.00;;
64459;SDS011;50828;53.756;21.140;2023-07-28T02:55:24;3.20;;;2.30;;
64459;SDS011;50828;53.756;21.140;2023-07-28T03:00:31;3.80;;;2.20;;
64459;SDS011;50828;53.756;21.140;2023-07-28T03:05:39;6.90;;;3.40;;
64459;SDS011;50828;53.756;21.140;2023-07-28T03:11:00;5.80;;;3.40;;
64459;SDS011;50828;53.756;21.140;2023-07-28T03:16:09;7.30;;;4.30;;
64459;SDS011;50828;53.756;21.140;2023-07-28T03:21:17;6.70;;;3.30;;
64459;SDS011;50828;53.756;21.140;2023-07-28T03:26:25;6.50;;;3.00;;
64459;SDS011;50828;53.756;21.140;2023-07-28T03:31:32;4.60;;;2.60;;
64459;SDS011;50828;53.756;21.140;2023-07-28T03:36:41;5.70;;;3.40;;
64459;SDS011;50828;53.756;21.140;2023-07-28T03:41:50;7.00;;;3.20;;
64459;SDS011;50828;53.756;21.140;2023-07-28T03:46:58;5.80;;;3.00;;
64459;SDS011;50828;53.756;21.140;2023-07-28T03:52:07;5.40;;;2.70;;
64459;SDS011;50828;53.756;21.140;2023-07-28T03:57:15;3.80;;;2.30;;
64459;SDS011;50828;53.756;21.140;2023-07-28T04:02:23;3.60;;;2.10;;
64459;SDS011;50828;53.756;21.140;2023-07-28T04:07:31;5.30;;;3.00;;
64459;SDS011;50828;53.756;21.140;2023-07-28T04:12:40;4.70;;;2.60;;
64459;SDS011;50828;53.756;21.140;2023-07-28T04:17:48;5.20;;;2.80;;
64459;SDS011;50828;53.756;21.140;2023-07-28T04:22:57;4.80;;;2.80;;
64459;SDS011;50828;53.756;21.140;2023-07-28T04:28:10;5.60;;;2.60;;
64459;SDS011;50828;53.756;21.140;2023-07-28T04:33:19;2.80;;;2.10;;
64459;SDS011;50828;53.756;21.140;2023-07-28T04:38:27;4.50;;;2.40;;
64459;SDS011;50828;53.756;21.140;2023-07-28T04:43:36;3.90;;;2.40;;
64459;SDS011;50828;53.756;21.140;2023-07-28T04:48:44;4.60;;;2.60;;
64459;SDS011;50828;53.756;21.140;2023-07-28T04:54:11;4.40;;;2.90;;
64459;SDS011;50828;53.756;21.140;2023-07-28T04:59:18;5.80;;;3.20;;
64459;SDS011;50828;53.756;21.140;2023-07-28T05:04:26;5.40;;;2.90;;
64459;SDS011;50828;53.756;21.140;2023-07-28T05:09:34;7.00;;;3.40;;
64459;SDS011;50828;53.756;21.140;2023-07-28T05:14:43;7.50;;;3.00;;
64459;SDS011;50828;53.756;21.140;2023-07-28T05:19:53;5.80;;;3.80;;
64459;SDS011;50828;53.756;21.140;2023-07-28T05:25:26;4.50;;;2.60;;
64459;SDS011;50828;53.756;21.140;2023-07-28T05:30:35;4.20;;;2.50;;
64459;SDS011;50828;53.756;21.140;2023-07-28T05:35:43;5.40;;;2.30;;
64459;SDS011;50828;53.756;21.140;2023-07-28T05:40:57;3.40;;;2.50;;
64459;SDS011;50828;53.756;21.140;2023-07-28T05:46:07;3.40;;;1.70;;
64459;SDS011;50828;53.756;21.140;2023-07-28T05:51:16;4.50;;;2.40;;
64459;SDS011;50828;53.756;21.140;2023-07-28T05:56:26;5.70;;;2.70;;
64459;SDS011;50828;53.756;21.140;2023-07-28T06:01:35;6.00;;;3.10;;
64459;SDS011;50828;53.756;21.140;2023-07-28T06:07:01;3.90;;;2.60;;
64459;SDS011;50828;53.756;21.140;2023-07-28T06:12:10;5.10;;;2.90;;
64459;SDS011;50828;53.756;21.140;2023-07-28T06:17:20;4.90;;;3.00;;
64459;SDS011;50828;53.756;21.140;2023-07-28T06:22:32;3.40;;;2.40;;
64459;SDS011;50828;53.756;21.140;2023-07-28T06:27:40;2.70;;;2.00;;
64459;SDS011;50828;53.756;21.140;2023-07-28T06:32:48;4.80;;;2.90;;
64459;SDS011;50828;53.756;21.140;2023-07-28T06:37:56;4.80;;;2.70;;
64459;SDS011;50828;53.756;21.140;2023-07-28T06:43:06;5.50;;;3.50;;
64459;SDS011;50828;53.756;21.140;2023-07-28T06:48:15;5.10;;;2.70;;
64459;SDS011;50828;53.756;21.140;2023-07-28T06:53:23;5.30;;;3.00;;
64459;SDS011;50828;53.756;21.140;2023-07-28T06:58:31;5.10;;;3.20;;
64459;SDS011;50828;53.756;21.140;2023-07-28T07:03:39;4.00;;;2.90;;
64459;SDS011;50828;53.756;21.140;2023-07-28T07:08:47;5.80;;;3.40;;
64459;SDS011;50828;53.756;21.140;2023-07-28T07:13:56;4.40;;;3.80;;
64459;SDS011;50828;53.756;21.140;2023-07-28T07:19:04;4.90;;;3.40;;
64459;SDS011;50828;53.756;21.140;2023-07-28T07:24:12;4.10;;;3.00;;
64459;SDS011;50828;53.756;21.140;2023-07-28T07:29:21;3.80;;;3.10;;
64459;SDS011;50828;53.756;21.140;2023-07-28T07:34:29;4.30;;;2.90;;
64459;SDS011;50828;53.756;21.140;2023-07-28T07:39:37;6.10;;;3.60;;
64459;SDS011;50828;53.756;21.140;2023-07-28T07:44:48;4.80;;;3.50;;
64459;SDS011;50828;53.756;21.140;2023-07-28T07:49:56;5.00;;;3.50;;
64459;SDS011;50828;53.756;21.140;2023-07-28T07:55:06;7.80;;;3.40;;
64459;SDS011;50828;53.756;21.140;2023-07-28T08:00:18;4.60;;;3.10;;
64459;SDS011;50828;53.756;21.140;2023-07-28T08:05:26;5.70;;;3.40;;
64459;SDS011;50828;53.756;21.140;2023-07-28T08:10:35;6.60;;;3.10;;
64459;SDS011;50828;53.756;21.140;2023-07-28T08:15:45;5.90;;;3.60;;
64459;SDS011;50828;53.756;21.140;2023-07-28T08:20:53;5.90;;;3.70;;
64459;SDS011;50828;53.756;21.140;2023-07-28T08:26:01;6.20;;;3.80;;
64459;SDS011;50828;53.756;21.140;2023-07-28T08:31:09;6.10;;;3.50;;
64459;SDS011;50828;53.756;21.140;2023-07-28T08:36:18;5.30;;;3.20;;
64459;SDS011;50828;53.756;21.140;2023-07-28T08:41:25;5.70;;;3.50;;
64459;SDS011;50828;53.756;21.140;2023-07-28T08:46:33;5.10;;;3.30;;
64459;SDS011;50828;53.756;21.140;2023-07-28T08:51:43;8.40;;;3.80;;
64459;SDS011;50828;53.756;21.140;2023-07-28T08:56:56;4.70;;;3.10;;
64459;SDS011;50828;53.756;21.140;2023-07-28T09:02:05;5.20;;;3.30;;
64459;SDS011;50828;53.756;21.140;2023-07-28T09:07:18;6.50;;;3.00;;
64459;SDS011;50828;53.756;21.140;2023-07-28T09:12:26;4.70;;;3.10;;
64459;SDS011;50828;53.756;21.140;2023-07-28T09:17:40;6.20;;;3.30;;
64459;SDS011;50828;53.756;21.140;2023-07-28T09:22:59;4.70;;;3.10;;
64459;SDS011;50828;53.756;21.140;2023-07-28T09:28:09;4.40;;;3.00;;
64459;SDS011;50828;53.756;21.140;2023-07-28T09:38:41;6.00;;;3.00;;
64459;SDS011;50828;53.756;21.140;2023-07-28T09:43:50;5.50;;;3.30;;
64459;SDS011;50828;53.756;21.140;2023-07-28T09:48:59;5.50;;;3.10;;
64459;SDS011;50828;53.756;21.140;2023-07-28T09:54:18;4.50;;;3.30;;
64459;SDS011;50828;53.756;21.140;2023-07-28T09:59:35;5.90;;;3.20;;
64459;SDS011;50828;53.756;21.140;2023-07-28T10:04:44;6.00;;;3.10;;
64459;SDS011;50828;53.756;21.140;2023-07-28T10:09:52;5.20;;;3.00;;
64459;SDS011;50828;53.756;21.140;2023-07-28T10:15:05;5.50;;;3.50;;
64459;SDS011;50828;53.756;21.140;2023-07-28T10:20:30;5.30;;;3.70;;
64459;SDS011;50828;53.756;21.140;2023-07-28T10:25:41;5.30;;;3.40;;
64459;SDS011;50828;53.756;21.140;2023-07-28T10:30:53;6.40;;;3.80;;
64459;SDS011;50828;53.756;21.140;2023-07-28T10:36:11;6.40;;;3.90;;
64459;SDS011;50828;53.756;21.140;2023-07-28T10:41:19;6.30;;;3.60;;
64459;SDS011;50828;53.756;21.140;2023-07-28T10:46:27;5.10;;;3.50;;
64459;SDS011;50828;53.756;21.140;2023-07-28T10:51:37;8.10;;;4.20;;
64459;SDS011;50828;53.756;21.140;2023-07-28T10:56:47;5.70;;;4.00;;
64459;SDS011;50828;53.756;21.140;2023-07-28T11:01:56;7.60;;;4.10;;
64459;SDS011;50828;53.756;21.140;2023-07-28T11:07:05;7.10;;;3.90;;
64459;SDS011;50828;53.756;21.140;2023-07-28T11:12:14;5.90;;;3.90;;
64459;SDS011;50828;53.756;21.140;2023-07-28T11:17:24;5.90;;;4.40;;
64459;SDS011;50828;53.756;21.140;2023-07-28T11:22:37;6.30;;;4.40;;
64459;SDS011;50828;53.756;21.140;2023-07-28T11:27:46;7.20;;;4.50;;
64459;SDS011;50828;53.756;21.140;2023-07-28T11:32:55;5.40;;;3.90;;
64459;SDS011;50828;53.756;21.140;2023-07-28T11:38:04;7.00;;;4.60;;
64459;SDS011;50828;53.756;21.140;2023-07-28T11:43:13;6.00;;;4.50;;
64459;SDS011;50828;53.756;21.140;2023-07-28T11:48:22;6.70;;;4.30;;
64459;SDS011;50828;53.756;21.140;2023-07-28T11:53:35;6.00;;;4.40;;
64459;SDS011;50828;53.756;21.140;2023-07-28T11:58:45;9.10;;;4.30;;
64459;SDS011;50828;53.756;21.140;2023-07-28T12:03:58;7.60;;;4.70;;
64459;SDS011;50828;53.756;21.140;2023-07-28T12:09:28;7.50;;;4.10;;
64459;SDS011;50828;53.756;21.140;2023-07-28T12:14:37;6.80;;;4.80;;
64459;SDS011;50828;53.756;21.140;2023-07-28T12:20:00;7.10;;;5.00;;
64459;SDS011;50828;53.756;21.140;2023-07-28T12:25:18;6.50;;;4.70;;
64459;SDS011;50828;53.756;21.140;2023-07-28T12:30:26;7.10;;;5.10;;
64459;SDS011;50828;53.756;21.140;2023-07-28T12:35:34;7.90;;;5.70;;
64459;SDS011;50828;53.756;21.140;2023-07-28T12:40:45;8.00;;;5.60;;
64459;SDS011;50828;53.756;21.140;2023-07-28T12:45:56;8.30;;;6.20;;
64459;SDS011;50828;53.756;21.140;2023-07-28T12:51:07;9.60;;;6.00;;
64459;SDS011;50828;53.756;21.140;2023-07-28T12:56:14;7.40;;;5.40;;
64459;SDS011;50828;53.756;21.140;2023-07-28T13:01:27;8.50;;;5.10;;
64459;SDS011;50828;53.756;21.140;2023-07-28T13:06:35;8.00;;;5.20;;
64459;SDS011;50828;53.756;21.140;2023-07-28T13:11:45;7.60;;;5.40;;
64459;SDS011;50828;53.756;21.140;2023-07-28T13:16:56;6.60;;;5.30;;
64459;SDS011;50828;53.756;21.140;2023-07-28T13:22:05;9.80;;;5.40;;
64459;SDS011;50828;53.756;21.140;2023-07-28T13:27:13;8.80;;;5.40;;
64459;SDS011;50828;53.756;21.140;2023-07-28T13:32:24;7.60;;;5.40;;
64459;SDS011;50828;53.756;21.140;2023-07-28T13:37:33;9.10;;;5.40;;
64459;SDS011;50828;53.756;21.140;2023-07-28T13:42:41;6.60;;;4.80;;
64459;SDS011;50828;53.756;21.140;2023-07-28T13:47:49;7.40;;;5.20;;
64459;SDS011;50828;53.756;21.140;2023-07-28T13:52:57;9.50;;;5.20;;
64459;SDS011;50828;53.756;21.140;2023-07-28T13:58:27;7.10;;;4.80;;
64459;SDS011;50828;53.756;21.140;2023-07-28T14:03:34;9.40;;;4.90;;
64459;SDS011;50828;53.756;21.140;2023-07-28T14:08:43;6.10;;;4.20;;
64459;SDS011;50828;53.756;21.140;2023-07-28T14:13:51;5.50;;;4.00;;
64459;SDS011;50828;53.756;21.140;2023-07-28T14:19:00;6.60;;;4.50;;
64459;SDS011;50828;53.756;21.140;2023-07-28T14:24:08;4.90;;;3.60;;
64459;SDS011;50828;53.756;21.140;2023-07-28T14:29:17;5.50;;;3.90;;
64459;SDS011;50828;53.756;21.140;2023-07-28T14:34:26;4.50;;;3.70;;
64459;SDS011;50828;53.756;21.140;2023-07-28T14:39:33;4.00;;;3.10;;
64459;SDS011;50828;53.756;21.140;2023-07-28T14:44:42;4.30;;;3.10;;
64459;SDS011;50828;53.756;21.140;2023-07-28T14:49:50;4.00;;;2.70;;
64459;SDS011;50828;53.756;21.140;2023-07-28T14:55:00;4.50;;;3.00;;
64459;SDS011;50828;53.756;21.140;2023-07-28T15:00:09;3.20;;;2.90;;
64459;SDS011;50828;53.756;21.140;2023-07-28T15:05:18;3.90;;;2.80;;
64459;SDS011;50828;53.756;21.140;2023-07-28T15:10:28;4.50;;;2.70;;
64459;SDS011;50828;53.756;21.140;2023-07-28T15:15:36;4.10;;;2.90;;
64459;SDS011;50828;53.756;21.140;2023-07-28T15:20:45;4.00;;;2.60;;
64459;SDS011;50828;53.756;21.140;2023-07-28T15:25:53;3.50;;;2.50;;
64459;SDS011;50828;53.756;21.140;2023-07-28T15:31:03;4.10;;;2.80;;
64459;SDS011;50828;53.756;21.140;2023-07-28T15:36:13;3.70;;;2.40;;
64459;SDS011;50828;53.756;21.140;2023-07-28T15:41:23;4.60;;;2.20;;
64459;SDS011;50828;53.756;21.140;2023-07-28T15:46:32;2.90;;;2.20;;
64459;SDS011;50828;53.756;21.140;2023-07-28T15:51:41;4.10;;;2.50;;
64459;SDS011;50828;53.756;21.140;2023-07-28T15:56:50;4.50;;;2.50;;
64459;SDS011;50828;53.756;21.140;2023-07-28T16:01:59;2.20;;;1.90;;
64459;SDS011;50828;53.756;21.140;2023-07-28T16:07:08;2.50;;;2.00;;
64459;SDS011;50828;53.756;21.140;2023-07-28T16:12:16;3.10;;;2.30;;
64459;SDS011;50828;53.756;21.140;2023-07-28T16:17:28;3.00;;;2.40;;
64459;SDS011;50828;53.756;21.140;2023-07-28T16:22:38;2.80;;;2.30;;
64459;SDS011;50828;53.756;21.140;2023-07-28T16:27:46;4.30;;;2.50;;
64459;SDS011;50828;53.756;21.140;2023-07-28T16:32:55;3.20;;;2.20;;
64459;SDS011;50828;53.756;21.140;2023-07-28T16:38:04;4.20;;;2.20;;
64459;SDS011;50828;53.756;21.140;2023-07-28T16:43:13;2.60;;;2.10;;
64459;SDS011;50828;53.756;21.140;2023-07-28T16:48:21;3.40;;;2.60;;
64459;SDS011;50828;53.756;21.140;2023-07-28T16:53:30;2.90;;;2.50;;
64459;SDS011;50828;53.756;21.140;2023-07-28T16:58:38;3.60;;;2.60;;
64459;SDS011;50828;53.756;21.140;2023-07-28T17:03:47;4.30;;;2.60;;
64459;SDS011;50828;53.756;21.140;2023-07-28T17:08:57;5.10;;;2.80;;
64459;SDS011;50828;53.756;21.140;2023-07-28T17:14:06;3.40;;;2.50;;
64459;SDS011;50828;53.756;21.140;2023-07-28T17:19:13;3.00;;;2.40;;
64459;SDS011;50828;53.756;21.140;2023-07-28T17:24:21;3.30;;;2.60;;
64459;SDS011;50828;53.756;21.140;2023-07-28T17:29:28;4.00;;;2.50;;
64459;SDS011;50828;53.756;21.140;2023-07-28T17:34:36;3.90;;;3.10;;
64459;SDS011;50828;53.756;21.140;2023-07-28T17:39:45;4.20;;;2.70;;
64459;SDS011;50828;53.756;21.140;2023-07-28T17:44:54;4.20;;;2.70;;
64459;SDS011;50828;53.756;21.140;2023-07-28T17:50:03;3.40;;;2.70;;
64459;SDS011;50828;53.756;21.140;2023-07-28T17:55:13;3.40;;;2.80;;
64459;SDS011;50828;53.756;21.140;2023-07-28T18:00:23;6.10;;;2.70;;
64459;SDS011;50828;53.756;21.140;2023-07-28T18:05:32;4.30;;;3.20;;
64459;SDS011;50828;53.756;21.140;2023-07-28T18:10:42;5.40;;;3.40;;
64459;SDS011;50828;53.756;21.140;2023-07-28T18:15:51;4.00;;;2.80;;
64459;SDS011;50828;53.756;21.140;2023-07-28T18:21:02;5.10;;;3.00;;
64459;SDS011;50828;53.756;21.140;2023-07-28T18:26:11;6.60;;;3.50;;
64459;SDS011;50828;53.756;21.140;2023-07-28T18:31:20;4.80;;;3.30;;
64459;SDS011;50828;53.756;21.140;2023-07-28T18:36:28;4.60;;;3.20;;
64459;SDS011;50828;53.756;21.140;2023-07-28T18:41:37;3.20;;;2.50;;
64459;SDS011;50828;53.756;21.140;2023-07-28T18:46:47;4.30;;;3.10;;
64459;SDS011;50828;53.756;21.140;2023-07-28T18:51:56;4.60;;;3.20;;
64459;SDS011;50828;53.756;21.140;2023-07-28T18:57:05;4.20;;;3.00;;
64459;SDS011;50828;53.756;21.140;2023-07-28T19:02:14;5.20;;;3.70;;
64459;SDS011;50828;53.756;21.140;2023-07-28T19:07:24;5.20;;;3.30;;
64459;SDS011;50828;53.756;21.140;2023-07-28T19:12:34;5.50;;;2.90;;
64459;SDS011;50828;53.756;21.140;2023-07-28T19:17:42;4.10;;;3.20;;
64459;SDS011;50828;53.756;21.140;2023-07-28T19:22:51;4.10;;;3.00;;
64459;SDS011;50828;53.756;21.140;2023-07-28T19:28:00;4.50;;;2.90;;
64459;SDS011;50828;53.756;21.140;2023-07-28T19:33:08;6.90;;;3.30;;
64459;SDS011;50828;53.756;21.140;2023-07-28T19:38:18;8.70;;;3.20;;
64459;SDS011;50828;53.756;21.140;2023-07-28T19:43:26;5.40;;;3.20;;
64459;SDS011;50828;53.756;21.140;2023-07-28T19:48:34;5.00;;;3.20;;
64459;SDS011;50828;53.756;21.140;2023-07-28T19:53:42;5.40;;;2.90;;
64459;SDS011;50828;53.756;21.140;2023-07-28T19:58:51;3.60;;;2.90;;
64459;SDS011;50828;53.756;21.140;2023-07-28T20:04:01;3.90;;;2.90;;
64459;SDS011;50828;53.756;21.140;2023-07-28T20:09:10;7.20;;;3.90;;
64459;SDS011;50828;53.756;21.140;2023-07-28T20:14:19;4.70;;;3.50;;
64459;SDS011;50828;53.756;21.140;2023-07-28T20:19:28;4.20;;;3.40;;
64459;SDS011;50828;53.756;21.140;2023-07-28T20:24:36;3.50;;;2.70;;
64459;SDS011;50828;53.756;21.140;2023-07-28T20:29:45;2.50;;;1.80;;
64459;SDS011;50828;53.756;21.140;2023-07-28T20:34:53;4.10;;;2.90;;
64459;SDS011;50828;53.756;21.140;2023-07-28T20:40:02;5.30;;;3.30;;
64459;SDS011;50828;53.756;21.140;2023-07-28T20:45:11;2.80;;;2.40;;
64459;SDS011;50828;53.756;21.140;2023-07-28T20:50:21;4.70;;;2.20;;
64459;SDS011;50828;53.756;21.140;2023-07-28T20:55:29;2.40;;;2.10;;
64459;SDS011;50828;53.756;21.140;2023-07-28T21:00:40;3.40;;;2.70;;
64459;SDS011;50828;53.756;21.140;2023-07-28T21:05:49;4.00;;;3.30;;
64459;SDS011;50828;53.756;21.140;2023-07-28T21:10:57;4.30;;;3.60;;
64459;SDS011;50828;53.756;21.140;2023-07-28T21:16:06;4.20;;;3.70;;
64459;SDS011;50828;53.756;21.140;2023-07-28T21:21:17;3.80;;;3.30;;
64459;SDS011;50828;53.756;21.140;2023-07-28T21:26:27;4.30;;;3.20;;
64459;SDS011;50828;53.756;21.140;2023-07-28T21:31:35;3.90;;;3.30;;
64459;SDS011;50828;53.756;21.140;2023-07-28T21:36:43;6.70;;;3.80;;
64459;SDS011;50828;53.756;21.140;2023-07-28T21:41:52;5.10;;;4.10;;
64459;SDS011;50828;53.756;21.140;2023-07-28T21:47:02;5.00;;;4.30;;
64459;SDS011;50828;53.756;21.140;2023-07-28T21:52:10;5.20;;;3.90;;
64459;SDS011;50828;53.756;21.140;2023-07-28T21:57:18;6.50;;;4.30;;
64459;SDS011;50828;53.756;21.140;2023-07-28T22:02:27;7.00;;;4.50;;
64459;SDS011;50828;53.756;21.140;2023-07-28T22:07:36;6.00;;;4.40;;
64459;SDS011;50828;53.756;21.140;2023-07-28T22:12:46;6.00;;;4.30;;
64459;SDS011;50828;53.756;21.140;2023-07-28T22:17:55;6.00;;;4.40;;
64459;SDS011;50828;53.756;21.140;2023-07-28T22:23:03;5.10;;;4.10;;
64459;SDS011;50828;53.756;21.140;2023-07-28T22:28:11;5.70;;;3.90;;
64459;SDS011;50828;53.756;21.140;2023-07-28T22:33:23;5.50;;;4.10;;
64459;SDS011;50828;53.756;21.140;2023-07-28T22:38:32;6.80;;;3.90;;
64459;SDS011;50828;53.756;21.140;2023-07-28T22:43:40;5.80;;;4.20;;
64459;SDS011;50828;53.756;21.140;2023-07-28T22:48:48;5.90;;;4.30;;
64459;SDS011;50828;53.756;21.140;2023-07-28T22:53:56;4.80;;;3.80;;
64459;SDS011;50828;53.756;21.140;2023-07-28T22:59:05;4.10;;;3.40;;
64459;SDS011;50828;53.756;21.140;2023-07-28T23:04:13;5.00;;;3.30;;
64459;SDS011;50828;53.756;21.140;2023-07-28T23:09:21;5.70;;;2.20;;
64459;SDS011;50828;53.756;21.140;2023-07-28T23:14:30;4.10;;;2.10;;
64459;SDS011;50828;53.756;21.140;2023-07-28T23:19:38;3.70;;;2.70;;
64459;SDS011;50828;53.756;21.140;2023-07-28T23:24:47;6.80;;;3.90;;
64459;SDS011;50828;53.756;21.140;2023-07-28T23:29:55;5.20;;;4.00;;
64459;SDS011;50828;53.756;21.140;2023-07-28T23:35:04;5.70;;;4.30;;
64459;SDS011;50828;53.756;21.140;2023-07-28T23:40:13;6.90;;;5.10;;
64459;SDS011;50828;53.756;21.140;2023-07-28T23:45:21;6.80;;;4.80;;
64459;SDS011;50828;53.756;21.140;2023-07-28T23:50:30;7.20;;;5.20;;
64459;SDS011;50828;53.756;21.140;2023-07-28T23:55:38;10.10;;;5.60;;
